sensor_id;sensor_type;location;lat;lon;timestamp;P1;durP1;ratioP1;P2;durP2;ratioP2
66487;SDS011;53304;54.550;18.526;2023-02-11T00:01:07;5.30;;;2.40;;
66487;SDS011;53304;54.550;18.526;2023-02-11T00:03:34;6.78;;;2.40;;
66487;SDS011;53304;54.550;18.526;2023-02-11T00:06:00;5.72;;;2.30;;
66487;SDS011;53304;54.550;18.526;2023-02-11T00:08:29;6.28;;;2.30;;
66487;SDS011;53304;54.550;18.526;2023-02-11T00:10:55;5.32;;;2.50;;
66487;SDS011;53304;54.550;18.526;2023-02-11T00:13:22;6.40;;;2.40;;
66487;SDS011;53304;54.550;18.526;2023-02-11T00:15:47;8.20;;;2.95;;
66487;SDS011;53304;54.550;18.526;2023-02-11T00:18:13;6.00;;;2.97;;
66487;SDS011;53304;54.550;18.526;2023-02-11T00:20:41;5.55;;;2.80;;
66487;SDS011;53304;54.550;18.526;2023-02-11T00:23:07;6.55;;;2.65;;
66487;SDS011;53304;54.550;18.526;2023-02-11T00:25:37;11.75;;;2.80;;
66487;SDS011;53304;54.550;18.526;2023-02-11T00:28:03;5.82;;;2.70;;
66487;SDS011;53304;54.550;18.526;2023-02-11T00:30:31;5.97;;;2.63;;
66487;SDS011;53304;54.550;18.526;2023-02-11T00:32:58;6.03;;;2.78;;
66487;SDS011;53304;54.550;18.526;2023-02-11T00:35:26;5.28;;;2.65;;
66487;SDS011;53304;54.550;18.526;2023-02-11T00:37:52;6.55;;;3.00;;
66487;SDS011;53304;54.550;18.526;2023-02-11T00:40:20;5.72;;;2.60;;
66487;SDS011;53304;54.550;18.526;2023-02-11T00:42:46;7.95;;;2.60;;
66487;SDS011;53304;54.550;18.526;2023-02-11T00:45:12;6.57;;;2.70;;
66487;SDS011;53304;54.550;18.526;2023-02-11T00:47:39;5.32;;;2.78;;
66487;SDS011;53304;54.550;18.526;2023-02-11T00:50:07;6.72;;;3.08;;
66487;SDS011;53304;54.550;18.526;2023-02-11T00:52:33;5.90;;;2.83;;
66487;SDS011;53304;54.550;18.526;2023-02-11T00:55:00;5.75;;;2.65;;
66487;SDS011;53304;54.550;18.526;2023-02-11T00:57:28;7.88;;;2.72;;
66487;SDS011;53304;54.550;18.526;2023-02-11T00:59:53;5.15;;;2.40;;
66487;SDS011;53304;54.550;18.526;2023-02-11T01:02:19;5.88;;;2.80;;
66487;SDS011;53304;54.550;18.526;2023-02-11T01:04:44;7.85;;;2.90;;
66487;SDS011;53304;54.550;18.526;2023-02-11T01:07:10;6.60;;;2.88;;
66487;SDS011;53304;54.550;18.526;2023-02-11T01:09:38;6.93;;;2.83;;
66487;SDS011;53304;54.550;18.526;2023-02-11T01:12:04;7.10;;;2.90;;
66487;SDS011;53304;54.550;18.526;2023-02-11T01:14:29;4.05;;;2.33;;
66487;SDS011;53304;54.550;18.526;2023-02-11T01:16:54;7.80;;;3.00;;
66487;SDS011;53304;54.550;18.526;2023-02-11T01:19:22;6.03;;;2.78;;
66487;SDS011;53304;54.550;18.526;2023-02-11T01:21:47;7.50;;;3.25;;
66487;SDS011;53304;54.550;18.526;2023-02-11T01:24:13;6.00;;;3.05;;
66487;SDS011;53304;54.550;18.526;2023-02-11T01:26:43;7.45;;;2.92;;
66487;SDS011;53304;54.550;18.526;2023-02-11T01:29:08;5.10;;;2.75;;
66487;SDS011;53304;54.550;18.526;2023-02-11T01:31:34;7.68;;;3.20;;
66487;SDS011;53304;54.550;18.526;2023-02-11T01:33:59;5.50;;;2.67;;
66487;SDS011;53304;54.550;18.526;2023-02-11T01:36:29;6.45;;;2.97;;
66487;SDS011;53304;54.550;18.526;2023-02-11T01:38:55;6.75;;;3.50;;
66487;SDS011;53304;54.550;18.526;2023-02-11T01:41:20;5.93;;;3.15;;
66487;SDS011;53304;54.550;18.526;2023-02-11T01:43:47;6.88;;;3.20;;
66487;SDS011;53304;54.550;18.526;2023-02-11T01:51:39;7.07;;;3.42;;
66487;SDS011;53304;54.550;18.526;2023-02-11T01:54:09;6.00;;;3.20;;
66487;SDS011;53304;54.550;18.526;2023-02-11T01:56:55;6.80;;;3.40;;
66487;SDS011;53304;54.550;18.526;2023-02-11T02:02:19;6.82;;;3.40;;
66487;SDS011;53304;54.550;18.526;2023-02-11T02:04:52;7.60;;;3.20;;
66487;SDS011;53304;54.550;18.526;2023-02-11T02:07:31;6.97;;;3.72;;
66487;SDS011;53304;54.550;18.526;2023-02-11T02:10:02;7.40;;;3.40;;
66487;SDS011;53304;54.550;18.526;2023-02-11T02:12:32;7.65;;;3.53;;
66487;SDS011;53304;54.550;18.526;2023-02-11T02:18:02;7.13;;;3.17;;
66487;SDS011;53304;54.550;18.526;2023-02-11T02:34:54;5.82;;;3.42;;
66487;SDS011;53304;54.550;18.526;2023-02-11T02:37:39;7.05;;;3.63;;
66487;SDS011;53304;54.550;18.526;2023-02-11T02:40:11;7.68;;;3.70;;
66487;SDS011;53304;54.550;18.526;2023-02-11T02:42:40;7.55;;;3.38;;
66487;SDS011;53304;54.550;18.526;2023-02-11T02:45:08;6.00;;;3.30;;
66487;SDS011;53304;54.550;18.526;2023-02-11T02:47:39;6.97;;;3.40;;
66487;SDS011;53304;54.550;18.526;2023-02-11T02:50:05;6.53;;;3.70;;
66487;SDS011;53304;54.550;18.526;2023-02-11T03:05:55;5.55;;;3.10;;
66487;SDS011;53304;54.550;18.526;2023-02-11T03:09:10;5.63;;;3.25;;
66487;SDS011;53304;54.550;18.526;2023-02-11T03:11:16;5.70;;;3.55;;
66487;SDS011;53304;54.550;18.526;2023-02-11T03:13:42;5.57;;;2.92;;
66487;SDS011;53304;54.550;18.526;2023-02-11T03:16:12;5.97;;;3.05;;
66487;SDS011;53304;54.550;18.526;2023-02-11T03:18:40;6.40;;;3.28;;
66487;SDS011;53304;54.550;18.526;2023-02-11T03:21:07;6.57;;;3.25;;
66487;SDS011;53304;54.550;18.526;2023-02-11T03:26:03;6.15;;;3.33;;
66487;SDS011;53304;54.550;18.526;2023-02-11T03:28:52;7.70;;;3.20;;
66487;SDS011;53304;54.550;18.526;2023-02-11T03:31:30;5.70;;;2.90;;
66487;SDS011;53304;54.550;18.526;2023-02-11T03:36:40;5.88;;;3.00;;
66487;SDS011;53304;54.550;18.526;2023-02-11T03:39:09;5.70;;;3.30;;
66487;SDS011;53304;54.550;18.526;2023-02-11T03:41:36;7.55;;;2.85;;
66487;SDS011;53304;54.550;18.526;2023-02-11T03:44:02;6.32;;;3.20;;
66487;SDS011;53304;54.550;18.526;2023-02-11T03:46:32;5.43;;;2.95;;
66487;SDS011;53304;54.550;18.526;2023-02-11T03:49:02;4.63;;;3.00;;
66487;SDS011;53304;54.550;18.526;2023-02-11T03:51:29;7.35;;;2.80;;
66487;SDS011;53304;54.550;18.526;2023-02-11T03:53:58;4.65;;;2.53;;
66487;SDS011;53304;54.550;18.526;2023-02-11T03:56:26;5.07;;;2.90;;
66487;SDS011;53304;54.550;18.526;2023-02-11T03:58:54;5.78;;;2.78;;
66487;SDS011;53304;54.550;18.526;2023-02-11T04:01:19;7.25;;;2.83;;
66487;SDS011;53304;54.550;18.526;2023-02-11T04:03:50;4.38;;;2.28;;
66487;SDS011;53304;54.550;18.526;2023-02-11T04:06:15;5.75;;;2.60;;
66487;SDS011;53304;54.550;18.526;2023-02-11T04:08:43;5.05;;;2.75;;
66487;SDS011;53304;54.550;18.526;2023-02-11T04:11:08;4.45;;;2.55;;
66487;SDS011;53304;54.550;18.526;2023-02-11T04:13:33;4.85;;;2.67;;
66487;SDS011;53304;54.550;18.526;2023-02-11T04:15:59;5.05;;;2.67;;
66487;SDS011;53304;54.550;18.526;2023-02-11T04:18:24;4.38;;;2.58;;
66487;SDS011;53304;54.550;18.526;2023-02-11T04:20:50;6.78;;;2.70;;
66487;SDS011;53304;54.550;18.526;2023-02-11T04:23:15;4.70;;;2.45;;
66487;SDS011;53304;54.550;18.526;2023-02-11T04:25:41;4.57;;;2.60;;
66487;SDS011;53304;54.550;18.526;2023-02-11T04:28:07;4.18;;;2.60;;
66487;SDS011;53304;54.550;18.526;2023-02-11T04:30:32;4.38;;;2.40;;
66487;SDS011;53304;54.550;18.526;2023-02-11T04:33:00;6.80;;;2.47;;
66487;SDS011;53304;54.550;18.526;2023-02-11T04:35:27;4.18;;;2.35;;
66487;SDS011;53304;54.550;18.526;2023-02-11T04:37:53;4.93;;;2.42;;
66487;SDS011;53304;54.550;18.526;2023-02-11T04:40:20;4.15;;;2.22;;
66487;SDS011;53304;54.550;18.526;2023-02-11T04:42:48;5.30;;;2.38;;
66487;SDS011;53304;54.550;18.526;2023-02-11T04:45:16;3.20;;;2.10;;
66487;SDS011;53304;54.550;18.526;2023-02-11T04:47:41;4.18;;;2.10;;
66487;SDS011;53304;54.550;18.526;2023-02-11T04:50:09;4.13;;;2.20;;
66487;SDS011;53304;54.550;18.526;2023-02-11T04:52:35;3.67;;;2.03;;
66487;SDS011;53304;54.550;18.526;2023-02-11T04:55:00;3.40;;;2.10;;
66487;SDS011;53304;54.550;18.526;2023-02-11T04:57:28;4.90;;;2.10;;
66487;SDS011;53304;54.550;18.526;2023-02-11T04:59:56;2.88;;;1.90;;
66487;SDS011;53304;54.550;18.526;2023-02-11T05:02:21;3.38;;;2.10;;
66487;SDS011;53304;54.550;18.526;2023-02-11T05:04:46;3.92;;;2.25;;
66487;SDS011;53304;54.550;18.526;2023-02-11T05:07:12;3.00;;;1.70;;
66487;SDS011;53304;54.550;18.526;2023-02-11T05:09:40;4.10;;;1.80;;
66487;SDS011;53304;54.550;18.526;2023-02-11T05:12:08;4.72;;;2.35;;
66487;SDS011;53304;54.550;18.526;2023-02-11T05:14:36;3.92;;;2.20;;
66487;SDS011;53304;54.550;18.526;2023-02-11T05:17:02;3.55;;;1.95;;
66487;SDS011;53304;54.550;18.526;2023-02-11T05:19:29;4.10;;;2.22;;
66487;SDS011;53304;54.550;18.526;2023-02-11T05:21:56;2.70;;;1.88;;
66487;SDS011;53304;54.550;18.526;2023-02-11T05:24:24;2.53;;;1.83;;
66487;SDS011;53304;54.550;18.526;2023-02-11T05:26:51;4.20;;;1.90;;
66487;SDS011;53304;54.550;18.526;2023-02-11T05:29:20;4.25;;;1.77;;
66487;SDS011;53304;54.550;18.526;2023-02-11T05:31:45;3.90;;;2.03;;
66487;SDS011;53304;54.550;18.526;2023-02-11T05:34:10;3.67;;;1.80;;
66487;SDS011;53304;54.550;18.526;2023-02-11T05:36:38;3.45;;;1.80;;
66487;SDS011;53304;54.550;18.526;2023-02-11T05:39:08;2.67;;;1.70;;
66487;SDS011;53304;54.550;18.526;2023-02-11T05:41:36;4.72;;;1.85;;
66487;SDS011;53304;54.550;18.526;2023-02-11T05:44:04;2.83;;;1.70;;
66487;SDS011;53304;54.550;18.526;2023-02-11T05:46:32;2.80;;;1.80;;
66487;SDS011;53304;54.550;18.526;2023-02-11T05:48:57;3.65;;;1.73;;
66487;SDS011;53304;54.550;18.526;2023-02-11T05:51:22;3.28;;;1.73;;
66487;SDS011;53304;54.550;18.526;2023-02-11T05:53:50;2.17;;;1.40;;
66487;SDS011;53304;54.550;18.526;2023-02-11T05:56:19;3.85;;;1.60;;
66487;SDS011;53304;54.550;18.526;2023-02-11T05:58:47;2.20;;;1.50;;
66487;SDS011;53304;54.550;18.526;2023-02-11T06:01:15;2.40;;;1.50;;
66487;SDS011;53304;54.550;18.526;2023-02-11T06:03:40;2.15;;;1.40;;
66487;SDS011;53304;54.550;18.526;2023-02-11T06:06:09;3.95;;;1.50;;
66487;SDS011;53304;54.550;18.526;2023-02-11T06:08:37;2.80;;;1.60;;
66487;SDS011;53304;54.550;18.526;2023-02-11T06:11:03;3.13;;;1.55;;
66487;SDS011;53304;54.550;18.526;2023-02-11T06:13:28;2.80;;;1.50;;
66487;SDS011;53304;54.550;18.526;2023-02-11T06:15:57;2.67;;;1.60;;
66487;SDS011;53304;54.550;18.526;2023-02-11T06:18:23;2.45;;;1.60;;
66487;SDS011;53304;54.550;18.526;2023-02-11T06:20:49;3.40;;;1.50;;
66487;SDS011;53304;54.550;18.526;2023-02-11T06:23:14;2.80;;;1.50;;
66487;SDS011;53304;54.550;18.526;2023-02-11T06:25:40;5.55;;;1.50;;
66487;SDS011;53304;54.550;18.526;2023-02-11T06:28:05;3.55;;;1.20;;
66487;SDS011;53304;54.550;18.526;2023-02-11T06:30:30;1.92;;;1.23;;
66487;SDS011;53304;54.550;18.526;2023-02-11T06:32:56;4.30;;;1.30;;
66487;SDS011;53304;54.550;18.526;2023-02-11T06:35:21;3.03;;;1.25;;
66487;SDS011;53304;54.550;18.526;2023-02-11T06:37:47;4.20;;;1.45;;
66487;SDS011;53304;54.550;18.526;2023-02-11T06:40:16;3.53;;;1.30;;
66487;SDS011;53304;54.550;18.526;2023-02-11T06:42:41;4.13;;;1.63;;
66487;SDS011;53304;54.550;18.526;2023-02-11T06:45:09;4.15;;;1.30;;
66487;SDS011;53304;54.550;18.526;2023-02-11T06:47:37;3.95;;;1.45;;
66487;SDS011;53304;54.550;18.526;2023-02-11T06:50:03;1.98;;;1.17;;
66487;SDS011;53304;54.550;18.526;2023-02-11T06:52:31;4.15;;;1.33;;
66487;SDS011;53304;54.550;18.526;2023-02-11T06:54:57;2.78;;;1.40;;
66487;SDS011;53304;54.550;18.526;2023-02-11T06:57:25;5.85;;;1.35;;
66487;SDS011;53304;54.550;18.526;2023-02-11T06:59:53;7.70;;;1.58;;
66487;SDS011;53304;54.550;18.526;2023-02-11T07:02:19;1.77;;;1.13;;
66487;SDS011;53304;54.550;18.526;2023-02-11T07:04:45;3.45;;;1.40;;
66487;SDS011;53304;54.550;18.526;2023-02-11T07:07:10;1.67;;;1.10;;
66487;SDS011;53304;54.550;18.526;2023-02-11T07:09:35;4.80;;;1.35;;
66487;SDS011;53304;54.550;18.526;2023-02-11T07:12:01;14.40;;;1.80;;
66487;SDS011;53304;54.550;18.526;2023-02-11T07:14:26;7.05;;;1.70;;
66487;SDS011;53304;54.550;18.526;2023-02-11T07:16:52;7.82;;;1.45;;
66487;SDS011;53304;54.550;18.526;2023-02-11T07:19:17;11.57;;;2.25;;
66487;SDS011;53304;54.550;18.526;2023-02-11T07:21:42;10.30;;;1.70;;
66487;SDS011;53304;54.550;18.526;2023-02-11T07:24:08;11.20;;;1.77;;
66487;SDS011;53304;54.550;18.526;2023-02-11T07:26:34;6.60;;;1.80;;
66487;SDS011;53304;54.550;18.526;2023-02-11T07:29:00;6.38;;;1.48;;
66487;SDS011;53304;54.550;18.526;2023-02-11T07:31:26;7.25;;;1.52;;
66487;SDS011;53304;54.550;18.526;2023-02-11T07:33:54;10.48;;;2.47;;
66487;SDS011;53304;54.550;18.526;2023-02-11T07:36:20;6.55;;;1.60;;
66487;SDS011;53304;54.550;18.526;2023-02-11T07:38:51;5.55;;;1.58;;
66487;SDS011;53304;54.550;18.526;2023-02-11T07:41:18;4.10;;;1.50;;
66487;SDS011;53304;54.550;18.526;2023-02-11T07:43:46;4.95;;;1.63;;
66487;SDS011;53304;54.550;18.526;2023-02-11T07:46:16;6.43;;;1.85;;
66487;SDS011;53304;54.550;18.526;2023-02-11T07:48:48;4.55;;;1.60;;
66487;SDS011;53304;54.550;18.526;2023-02-11T07:51:20;3.55;;;1.55;;
66487;SDS011;53304;54.550;18.526;2023-02-11T07:56:17;3.35;;;1.13;;
66487;SDS011;53304;54.550;18.526;2023-02-11T07:58:45;3.17;;;1.30;;
66487;SDS011;53304;54.550;18.526;2023-02-11T08:01:12;4.18;;;1.40;;
66487;SDS011;53304;54.550;18.526;2023-02-11T08:03:46;3.63;;;1.20;;
66487;SDS011;53304;54.550;18.526;2023-02-11T08:06:15;2.88;;;1.38;;
66487;SDS011;53304;54.550;18.526;2023-02-11T08:08:44;3.80;;;1.38;;
66487;SDS011;53304;54.550;18.526;2023-02-11T08:11:11;3.40;;;1.10;;
66487;SDS011;53304;54.550;18.526;2023-02-11T08:13:41;4.35;;;1.25;;
66487;SDS011;53304;54.550;18.526;2023-02-11T08:16:06;4.00;;;1.27;;
66487;SDS011;53304;54.550;18.526;2023-02-11T08:18:33;4.38;;;1.38;;
66487;SDS011;53304;54.550;18.526;2023-02-11T08:21:05;3.10;;;1.23;;
66487;SDS011;53304;54.550;18.526;2023-02-11T08:23:32;2.08;;;1.30;;
66487;SDS011;53304;54.550;18.526;2023-02-11T08:26:05;4.13;;;1.25;;
66487;SDS011;53304;54.550;18.526;2023-02-11T08:28:34;3.13;;;1.10;;
66487;SDS011;53304;54.550;18.526;2023-02-11T08:31:07;1.92;;;1.20;;
66487;SDS011;53304;54.550;18.526;2023-02-11T08:33:38;3.83;;;1.10;;
66487;SDS011;53304;54.550;18.526;2023-02-11T08:36:13;2.30;;;1.30;;
66487;SDS011;53304;54.550;18.526;2023-02-11T08:38:42;3.33;;;1.30;;
66487;SDS011;53304;54.550;18.526;2023-02-11T08:41:11;7.05;;;1.77;;
66487;SDS011;53304;54.550;18.526;2023-02-11T08:43:39;2.65;;;1.17;;
66487;SDS011;53304;54.550;18.526;2023-02-11T08:46:06;2.88;;;1.35;;
66487;SDS011;53304;54.550;18.526;2023-02-11T08:48:32;3.47;;;1.33;;
66487;SDS011;53304;54.550;18.526;2023-02-11T08:51:04;3.35;;;1.23;;
66487;SDS011;53304;54.550;18.526;2023-02-11T08:53:33;2.35;;;1.10;;
66487;SDS011;53304;54.550;18.526;2023-02-11T08:55:59;2.10;;;1.10;;
66487;SDS011;53304;54.550;18.526;2023-02-11T08:58:25;2.22;;;1.10;;
66487;SDS011;53304;54.550;18.526;2023-02-11T09:00:50;2.15;;;1.20;;
66487;SDS011;53304;54.550;18.526;2023-02-11T09:03:16;2.97;;;1.33;;
66487;SDS011;53304;54.550;18.526;2023-02-11T09:05:45;1.40;;;0.98;;
66487;SDS011;53304;54.550;18.526;2023-02-11T09:08:16;2.35;;;1.27;;
66487;SDS011;53304;54.550;18.526;2023-02-11T09:10:41;2.63;;;1.10;;
66487;SDS011;53304;54.550;18.526;2023-02-11T09:13:07;2.70;;;1.13;;
66487;SDS011;53304;54.550;18.526;2023-02-11T09:15:35;4.25;;;1.13;;
66487;SDS011;53304;54.550;18.526;2023-02-11T09:18:04;4.43;;;1.25;;
66487;SDS011;53304;54.550;18.526;2023-02-11T09:20:29;1.88;;;1.10;;
66487;SDS011;53304;54.550;18.526;2023-02-11T09:22:57;3.95;;;1.55;;
66487;SDS011;53304;54.550;18.526;2023-02-11T09:25:23;3.63;;;1.20;;
66487;SDS011;53304;54.550;18.526;2023-02-11T09:27:49;4.85;;;1.48;;
66487;SDS011;53304;54.550;18.526;2023-02-11T09:30:17;4.82;;;1.40;;
66487;SDS011;53304;54.550;18.526;2023-02-11T09:32:45;2.78;;;1.25;;
66487;SDS011;53304;54.550;18.526;2023-02-11T09:35:13;9.13;;;2.00;;
66487;SDS011;53304;54.550;18.526;2023-02-11T09:37:39;7.60;;;1.85;;
66487;SDS011;53304;54.550;18.526;2023-02-11T09:40:04;6.85;;;1.38;;
66487;SDS011;53304;54.550;18.526;2023-02-11T09:45:18;6.40;;;1.73;;
66487;SDS011;53304;54.550;18.526;2023-02-11T09:47:51;6.32;;;1.60;;
66487;SDS011;53304;54.550;18.526;2023-02-11T09:50:22;8.73;;;2.10;;
66487;SDS011;53304;54.550;18.526;2023-02-11T09:52:57;11.23;;;1.90;;
66487;SDS011;53304;54.550;18.526;2023-02-11T09:55:25;17.45;;;2.22;;
66487;SDS011;53304;54.550;18.526;2023-02-11T09:57:51;10.13;;;2.65;;
66487;SDS011;53304;54.550;18.526;2023-02-11T10:00:25;12.13;;;2.30;;
66487;SDS011;53304;54.550;18.526;2023-02-11T10:08:11;10.80;;;2.63;;
66487;SDS011;53304;54.550;18.526;2023-02-11T10:13:24;12.68;;;2.40;;
66487;SDS011;53304;54.550;18.526;2023-02-11T10:18:36;12.52;;;3.00;;
66487;SDS011;53304;54.550;18.526;2023-02-11T10:23:45;9.98;;;2.92;;
66487;SDS011;53304;54.550;18.526;2023-02-11T10:26:16;10.38;;;2.17;;
66487;SDS011;53304;54.550;18.526;2023-02-11T10:28:43;14.40;;;2.70;;
66487;SDS011;53304;54.550;18.526;2023-02-11T10:36:30;9.73;;;2.25;;
66487;SDS011;53304;54.550;18.526;2023-02-11T10:38:58;11.05;;;2.85;;
66487;SDS011;53304;54.550;18.526;2023-02-11T10:41:29;11.07;;;2.67;;
66487;SDS011;53304;54.550;18.526;2023-02-11T10:44:02;10.73;;;2.95;;
66487;SDS011;53304;54.550;18.526;2023-02-11T10:46:31;11.30;;;2.58;;
66487;SDS011;53304;54.550;18.526;2023-02-11T10:49:00;12.32;;;2.50;;
66487;SDS011;53304;54.550;18.526;2023-02-11T10:51:28;8.50;;;2.08;;
66487;SDS011;53304;54.550;18.526;2023-02-11T10:56:39;9.32;;;2.30;;
66487;SDS011;53304;54.550;18.526;2023-02-11T10:59:13;8.23;;;2.40;;
66487;SDS011;53304;54.550;18.526;2023-02-11T11:01:49;10.63;;;2.55;;
66487;SDS011;53304;54.550;18.526;2023-02-11T11:06:51;8.98;;;2.45;;
66487;SDS011;53304;54.550;18.526;2023-02-11T11:09:26;17.30;;;2.95;;
66487;SDS011;53304;54.550;18.526;2023-02-11T11:11:56;11.55;;;2.15;;
66487;SDS011;53304;54.550;18.526;2023-02-11T11:14:22;12.25;;;2.90;;
66487;SDS011;53304;54.550;18.526;2023-02-11T11:16:53;11.55;;;2.80;;
66487;SDS011;53304;54.550;18.526;2023-02-11T11:19:20;12.60;;;2.95;;
66487;SDS011;53304;54.550;18.526;2023-02-11T11:21:55;10.90;;;2.75;;
66487;SDS011;53304;54.550;18.526;2023-02-11T11:24:28;9.68;;;2.85;;
66487;SDS011;53304;54.550;18.526;2023-02-11T11:26:59;8.75;;;2.47;;
66487;SDS011;53304;54.550;18.526;2023-02-11T11:29:33;7.72;;;2.95;;
66487;SDS011;53304;54.550;18.526;2023-02-11T11:32:11;10.40;;;2.35;;
66487;SDS011;53304;54.550;18.526;2023-02-11T11:34:41;7.35;;;2.35;;
66487;SDS011;53304;54.550;18.526;2023-02-11T11:39:56;9.27;;;2.55;;
66487;SDS011;53304;54.550;18.526;2023-02-11T11:42:28;8.85;;;2.70;;
66487;SDS011;53304;54.550;18.526;2023-02-11T11:45:00;9.43;;;2.53;;
66487;SDS011;53304;54.550;18.526;2023-02-11T11:47:40;6.97;;;2.38;;
66487;SDS011;53304;54.550;18.526;2023-02-11T11:57:53;6.97;;;1.95;;
66487;SDS011;53304;54.550;18.526;2023-02-11T12:00:20;9.02;;;2.67;;
66487;SDS011;53304;54.550;18.526;2023-02-11T12:05:50;7.03;;;2.10;;
66487;SDS011;53304;54.550;18.526;2023-02-11T12:11:08;7.63;;;2.40;;
66487;SDS011;53304;54.550;18.526;2023-02-11T12:16:35;9.77;;;2.50;;
66487;SDS011;53304;54.550;18.526;2023-02-11T12:22:10;9.75;;;2.45;;
66487;SDS011;53304;54.550;18.526;2023-02-11T12:27:47;10.25;;;2.22;;
66487;SDS011;53304;54.550;18.526;2023-02-11T12:33:13;7.80;;;2.50;;
66487;SDS011;53304;54.550;18.526;2023-02-11T12:35:52;9.48;;;2.10;;
66487;SDS011;53304;54.550;18.526;2023-02-11T12:43:37;8.60;;;2.58;;
66487;SDS011;53304;54.550;18.526;2023-02-11T12:46:13;6.35;;;2.03;;
66487;SDS011;53304;54.550;18.526;2023-02-11T12:55:00;8.27;;;2.50;;
66487;SDS011;53304;54.550;18.526;2023-02-11T12:57:31;8.73;;;2.20;;
66487;SDS011;53304;54.550;18.526;2023-02-11T13:05:00;8.82;;;2.15;;
66487;SDS011;53304;54.550;18.526;2023-02-11T13:07:32;8.13;;;2.15;;
66487;SDS011;53304;54.550;18.526;2023-02-11T13:10:42;7.78;;;2.50;;
66487;SDS011;53304;54.550;18.526;2023-02-11T13:12:50;9.20;;;2.30;;
66487;SDS011;53304;54.550;18.526;2023-02-11T13:15:38;9.65;;;2.55;;
66487;SDS011;53304;54.550;18.526;2023-02-11T13:29:06;10.48;;;2.65;;
66487;SDS011;53304;54.550;18.526;2023-02-11T13:31:37;9.07;;;2.63;;
66487;SDS011;53304;54.550;18.526;2023-02-11T13:34:02;10.25;;;2.83;;
66487;SDS011;53304;54.550;18.526;2023-02-11T13:36:56;7.35;;;2.90;;
66487;SDS011;53304;54.550;18.526;2023-02-11T13:39:26;8.90;;;3.13;;
66487;SDS011;53304;54.550;18.526;2023-02-11T13:42:00;11.23;;;3.40;;
66487;SDS011;53304;54.550;18.526;2023-02-11T13:44:31;10.40;;;2.95;;
66487;SDS011;53304;54.550;18.526;2023-02-11T13:47:01;10.70;;;3.20;;
66487;SDS011;53304;54.550;18.526;2023-02-11T13:49:33;10.32;;;3.10;;
66487;SDS011;53304;54.550;18.526;2023-02-11T13:52:05;11.10;;;3.25;;
66487;SDS011;53304;54.550;18.526;2023-02-11T13:54:51;10.07;;;2.95;;
66487;SDS011;53304;54.550;18.526;2023-02-11T13:59:50;11.52;;;3.40;;
66487;SDS011;53304;54.550;18.526;2023-02-11T14:10:58;10.38;;;3.08;;
66487;SDS011;53304;54.550;18.526;2023-02-11T14:13:31;12.65;;;3.08;;
66487;SDS011;53304;54.550;18.526;2023-02-11T14:23:49;11.57;;;3.35;;
66487;SDS011;53304;54.550;18.526;2023-02-11T14:29:33;17.90;;;4.20;;
66487;SDS011;53304;54.550;18.526;2023-02-11T14:31:41;10.05;;;3.35;;
66487;SDS011;53304;54.550;18.526;2023-02-11T14:37:25;16.17;;;4.68;;
66487;SDS011;53304;54.550;18.526;2023-02-11T14:42:27;11.77;;;3.67;;
66487;SDS011;53304;54.550;18.526;2023-02-11T14:44:56;14.75;;;4.70;;
66487;SDS011;53304;54.550;18.526;2023-02-11T14:47:35;15.60;;;4.40;;
66487;SDS011;53304;54.550;18.526;2023-02-11T14:50:04;12.05;;;3.80;;
66487;SDS011;53304;54.550;18.526;2023-02-11T14:52:31;16.65;;;4.88;;
66487;SDS011;53304;54.550;18.526;2023-02-11T14:55:03;14.68;;;3.83;;
66487;SDS011;53304;54.550;18.526;2023-02-11T14:58:03;14.30;;;4.07;;
66487;SDS011;53304;54.550;18.526;2023-02-11T15:00:29;16.20;;;4.47;;
66487;SDS011;53304;54.550;18.526;2023-02-11T15:02:55;16.00;;;4.28;;
66487;SDS011;53304;54.550;18.526;2023-02-11T15:07:47;16.77;;;4.18;;
66487;SDS011;53304;54.550;18.526;2023-02-11T15:10:16;15.38;;;4.55;;
66487;SDS011;53304;54.550;18.526;2023-02-11T15:12:45;18.77;;;4.68;;
66487;SDS011;53304;54.550;18.526;2023-02-11T15:15:14;17.80;;;5.00;;
66487;SDS011;53304;54.550;18.526;2023-02-11T15:17:42;14.20;;;3.83;;
66487;SDS011;53304;54.550;18.526;2023-02-11T15:20:14;12.27;;;3.65;;
66487;SDS011;53304;54.550;18.526;2023-02-11T15:22:56;13.90;;;4.40;;
66487;SDS011;53304;54.550;18.526;2023-02-11T15:25:28;17.58;;;4.22;;
66487;SDS011;53304;54.550;18.526;2023-02-11T15:27:54;14.60;;;4.65;;
66487;SDS011;53304;54.550;18.526;2023-02-11T15:32:47;15.25;;;4.45;;
66487;SDS011;53304;54.550;18.526;2023-02-11T15:35:17;14.82;;;4.70;;
66487;SDS011;53304;54.550;18.526;2023-02-11T15:37:43;13.50;;;3.78;;
66487;SDS011;53304;54.550;18.526;2023-02-11T15:40:15;16.45;;;5.10;;
66487;SDS011;53304;54.550;18.526;2023-02-11T15:42:52;16.75;;;4.45;;
66487;SDS011;53304;54.550;18.526;2023-02-11T15:45:21;14.48;;;4.43;;
66487;SDS011;53304;54.550;18.526;2023-02-11T15:47:53;13.40;;;3.90;;
66487;SDS011;53304;54.550;18.526;2023-02-11T15:50:29;15.20;;;4.40;;
66487;SDS011;53304;54.550;18.526;2023-02-11T15:52:56;15.75;;;4.20;;
66487;SDS011;53304;54.550;18.526;2023-02-11T15:55:52;14.45;;;4.15;;
66487;SDS011;53304;54.550;18.526;2023-02-11T15:58:21;27.98;;;9.55;;
66487;SDS011;53304;54.550;18.526;2023-02-11T16:00:51;41.17;;;18.52;;
66487;SDS011;53304;54.550;18.526;2023-02-11T16:03:24;27.77;;;11.68;;
66487;SDS011;53304;54.550;18.526;2023-02-11T16:05:56;23.38;;;7.15;;
66487;SDS011;53304;54.550;18.526;2023-02-11T16:10:56;23.67;;;9.15;;
66487;SDS011;53304;54.550;18.526;2023-02-11T16:13:30;23.52;;;9.45;;
66487;SDS011;53304;54.550;18.526;2023-02-11T16:15:59;22.27;;;7.40;;
66487;SDS011;53304;54.550;18.526;2023-02-11T16:20:57;18.75;;;7.00;;
66487;SDS011;53304;54.550;18.526;2023-02-11T16:23:36;15.23;;;5.55;;
66487;SDS011;53304;54.550;18.526;2023-02-11T16:26:04;16.50;;;5.70;;
66487;SDS011;53304;54.550;18.526;2023-02-11T16:28:33;16.90;;;5.40;;
66487;SDS011;53304;54.550;18.526;2023-02-11T16:31:00;13.35;;;5.05;;
66487;SDS011;53304;54.550;18.526;2023-02-11T16:33:25;11.98;;;4.90;;
66487;SDS011;53304;54.550;18.526;2023-02-11T16:35:55;14.40;;;4.65;;
66487;SDS011;53304;54.550;18.526;2023-02-11T16:38:28;14.13;;;4.18;;
66487;SDS011;53304;54.550;18.526;2023-02-11T16:40:56;10.45;;;3.38;;
66487;SDS011;53304;54.550;18.526;2023-02-11T16:43:23;9.90;;;3.28;;
66487;SDS011;53304;54.550;18.526;2023-02-11T16:45:49;7.22;;;2.67;;
66487;SDS011;53304;54.550;18.526;2023-02-11T16:48:15;9.32;;;2.65;;
66487;SDS011;53304;54.550;18.526;2023-02-11T16:50:43;9.93;;;2.50;;
66487;SDS011;53304;54.550;18.526;2023-02-11T16:53:21;7.38;;;2.35;;
66487;SDS011;53304;54.550;18.526;2023-02-11T16:55:51;7.03;;;2.30;;
66487;SDS011;53304;54.550;18.526;2023-02-11T16:58:19;5.80;;;2.13;;
66487;SDS011;53304;54.550;18.526;2023-02-11T17:00:45;4.13;;;1.85;;
66487;SDS011;53304;54.550;18.526;2023-02-11T17:03:14;5.78;;;1.92;;
66487;SDS011;53304;54.550;18.526;2023-02-11T17:05:41;5.43;;;1.80;;
66487;SDS011;53304;54.550;18.526;2023-02-11T17:08:07;4.65;;;1.70;;
66487;SDS011;53304;54.550;18.526;2023-02-11T17:10:33;5.50;;;1.60;;
66487;SDS011;53304;54.550;18.526;2023-02-11T17:12:59;3.45;;;1.23;;
66487;SDS011;53304;54.550;18.526;2023-02-11T17:15:25;4.47;;;1.33;;
66487;SDS011;53304;54.550;18.526;2023-02-11T17:17:53;5.55;;;1.40;;
66487;SDS011;53304;54.550;18.526;2023-02-11T17:20:18;3.22;;;1.10;;
66487;SDS011;53304;54.550;18.526;2023-02-11T17:22:44;3.88;;;1.30;;
66487;SDS011;53304;54.550;18.526;2023-02-11T17:25:10;5.10;;;1.30;;
66487;SDS011;53304;54.550;18.526;2023-02-11T17:27:35;4.28;;;1.00;;